CST,Max TemperatureF,Mean TemperatureF,Min TemperatureF,Max Dew PointF,MeanDew PointF,Min DewpointF,Max Humidity, Mean Humidity, Min Humidity, Max Sea Level PressureIn, Mean Sea Level PressureIn, Min Sea Level PressureIn, Max VisibilityMiles, Mean VisibilityMiles, Min VisibilityMiles, Max Wind SpeedMPH, Mean Wind SpeedMPH, Max Gust SpeedMPH,PrecipitationIn, CloudCover, Events, WindDirDegrees
2012-11-1,54,40,26,30,25,21,81,59,30,29.91,29.87,29.83,10,10,10,14,8,18,0.00,3,,297
2012-11-2,49,40,31,32,28,24,89,67,39,30.14,30.05,29.91,10,10,10,7,4,,0.00,0,,358
2012-11-3,46,40,33,35,33,31,90,77,61,30.21,30.17,30.11,10,10,10,10,2,,0.00,6,,71
2012-11-4,50,40,29,32,30,26,90,71,44,30.24,30.20,30.17,10,10,10,8,2,,0.00,3,,359
2012-11-5,43,32,21,38,29,21,100,86,61,30.20,30.16,30.11,10,6,0,8,1,,0.00,5,Fog,73
2012-11-6,40,32,23,41,34,24,100,96,81,30.11,29.96,29.86,10,4,1,9,3,,0.16,6,Rain,162
2012-11-7,45,42,40,42,41,39,100,96,81,30.16,30.04,29.87,5,3,1,6,1,,0.02,8,Rain,335
2012-11-8,48,42,36,42,38,34,100,86,63,30.22,30.15,30.08,10,6,2,12,5,17,0.00,5,,199
2012-11-9,58,46,34,46,41,34,100,83,60,30.11,30.02,29.96,10,7,2,12,6,,0.00,2,,141
2012-11-10,69,60,50,58,51,45,97,73,53,29.98,29.93,29.85,10,10,7,24,10,33,0.02,3,Rain-Thunderstorm,169
2012-11-11,69,53,36,55,49,36,100,75,55,29.98,29.87,29.74,10,9,4,37,20,47,0.42,5,Rain,199
2012-11-12,36,32,28,36,26,22,100,75,56,30.35,30.17,29.97,10,10,10,24,17,31,0.00,6,Rain,273
2012-11-13,40,32,23,26,23,20,89,70,49,30.51,30.45,30.36,10,10,10,10,5,,0.00,0,,254
2012-11-14,46,37,28,29,27,24,87,72,47,30.52,30.45,30.38,10,10,10,14,6,16,0.00,0,,156
2012-11-15,48,38,28,33,29,27,100,78,46,30.40,30.36,30.32,10,8,2,7,3,,0.00,0,,175
2012-11-16,55,42,28,32,30,28,100,69,38,30.47,30.43,30.36,10,9,3,7,2,,0.00,0,,160
2012-11-17,55,42,28,34,30,26,96,69,40,30.55,30.48,30.43,10,8,3,12,4,,0.00,0,,135
2012-11-18,57,43,29,36,33,27,100,69,39,30.43,30.37,30.31,10,8,2,9,4,,0.00,0,,132
2012-11-19,59,48,37,43,37,32,81,67,45,30.31,30.21,30.10,10,10,10,14,6,,0.00,3,,168
2012-11-20,59,48,36,46,43,36,100,79,59,30.17,30.11,30.08,10,7,0,9,3,,0.00,4,Fog,287
2012-11-21,56,44,33,52,40,33,100,95,66,30.25,30.17,30.10,10,2,0,8,2,,0.00,5,Fog,195
2012-11-22,63,50,38,50,44,36,100,80,51,30.09,29.93,29.81,10,7,0,30,12,37,0.00,3,Fog-Rain-Thunderstorm,195
2012-11-23,40,32,25,35,23,18,87,71,61,30.23,30.10,29.93,10,10,10,33,19,44,0.01,6,,294
2012-11-24,33,30,26,24,19,17,75,66,56,30.27,30.17,29.99,10,10,10,12,7,,0.00,6,,263
2012-11-25,44,36,28,28,26,23,80,67,48,30.07,29.93,29.85,10,10,10,12,7,,0.00,2,,269
2012-11-26,35,29,23,25,21,16,86,67,48,30.36,30.24,30.09,10,10,10,7,4,,0.00,2,,344
2012-11-27,34,26,17,18,13,10,80,60,36,30.43,30.33,30.26,10,10,10,10,5,,0.00,2,,273
2012-11-28,46,34,23,25,21,17,80,59,34,30.38,30.32,30.26,10,10,10,10,7,,0.00,2,,245
2012-11-29,53,40,26,33,29,22,86,70,45,30.28,30.16,30.07,10,9,7,13,6,17,0.00,0,,165
2012-11-30,54,44,32,36,33,32,100,70,45,30.13,30.08,30.04,10,10,4,8,4,,0.00,2,,124